Shiloh, Texas
Current Conditions -  °F | °C
As of 8:15 AM on Saturday 20 Dec 2014 (Local Time) from KLXY Reporting Station
Overcast Overcast  
Wind Chill: 43°   Ceiling: 800
Heat Index: 46°   Visibility: 10mi
Dew Point: 44°   Wind: 7mph
Humidity: 92%   Direction: 10°N
Pressure: 30.22"   Gusts: NA
Location:  31.6887°N, 96.511°W
Report Text: KLXY 201415Z AUTO 01006KT 10SM BKN008 BKN015 OVC032 08/07 A3022 RMK AO2 T00800067
Loading
Personal Weather Stations






























Interactive Weather Map New forecast layout! Learn more

10-Day Weather Forecast

Advertisements
Track Severe Weather on mobile